John F Kennedy International Airport
KJFK : now visible

Airfield :











YOU CAN JOIN US ON...

 
LOGIN :

Register | Disclaimer

   EN    FR    IT 

 









Legend :    VFR   Marginal VFR   IFR   Intensive IFR   Very Intensive IFR
Visi :
Ceiling :
>= 8 km
>= 3000ft
5 to 8 km
1000 to 3000 ft
1500m to 5 km
500 to 1000 ft
800 to 1500m
200 to 500 ft
< 800m
< 200 ft
Symbols :   Thunderstorms  Fog  Heavy snow  Heavy precipitations  Wind > 20 kt






- Airport Elevation : 13 ft
- IATA code : JFK


KJFK - John F Kennedy International

EXPIRED METARs :
  • 011551Z 16009KT 10SM FEW055 SCT250 27/22 A3005 RMK AO2 SLP176 T02720217
  • 012151Z 19020G24KT 10SM VCTS SCT060 BKN095 BKN120 BKN250 26/22 A2996 RMK AO2 LTG DSNT SW AND W RAB32E47 TSE44 SLP146 VCSH SW P0000 T02610217
  • 012051Z 19020G25KT 10SM FEW065 FEW110 BKN250 27/22 A2997 RMK AO2 SLP148 CB DSNT W T02720217 56016
  • 010551Z 24008KT 10SM CLR 23/18 A3012 RMK AO2 SLP200 T02280183 10233 20211 58006
  • 011951Z 19016KT 10SM FEW065 FEW110 SCT250 28/22 A2998 RMK AO2 SLP151 T02830217

TAF KJFK
Valid from the 01 at 22:00 until the 03 at 00:00 UTC


012148Z 0122/0224 19019G26KT P6SM SCT040 SCT070 BKN250
TEMPO 0122/0123 24025G46KT 3SM TSRA BKN040CB
FM020200 19015KT P6SM SCT070 BKN250
FM020600 21010KT P6SM SCT060 OVC100
FM021200 23012KT P6SM SCT035 BKN060
PROB30 0212/0218 5SM SHRA
FM021900 23012KT P6SM VCTS SCT035CB BKN060
PROB30 0219/0223 3SM TSRA
KZNY FIR / North America



MET'MAP, your aeronautical weather chart ! - Copyright ORBIFLY December 2007 - Disclaimer

ORBIFLY MET'MAP TEAM :

Programming & Development : Alexandra Zaïnal
Original concept : Baudouin d'Aumeries
Technical & hardware support : Manuel Goepfert
Assistance : Marc-Olivier Méhu




SOURCES & CREDITS :

   NOAA       Earth
Advisory